South Dorset, Vermont
Current Conditions -  °F | °C
As of 4:55 AM on Tuesday 21 Oct 2014 (Local Time) from KRUT Reporting Station
Overcast Overcast  
Wind Chill: 39°   Ceiling: 6000
Heat Index: 45°   Visibility: 10mi
Dew Point: 39°   Wind: 10mph
Humidity: 81%   Direction: 130°SE
Pressure: 29.92"   Gusts: NA
Location:  43.2618°N, 73.0663°W
Report Text: KRUT 210855Z 13009KT 10SM SCT050 BKN060 OVC070 07/04 A2992 RMK AO1 57003
Loading
Personal Weather Stations






























Interactive Weather Map
Tropical Storm Tracking
New forecast layout! Learn more

10-Day Weather Forecast

Advertisements
Track Severe Weather on mobile